Maersk Weymouth — VRFS9 — position and weather

sailwx.info

Track history (hours):
 
Tides and Currents Weather Stations Pressure Air Temp Water Temp Dewpoint Dewpoint Depression Visibility Wind Speed Wind Dir Waves Ship Positions

Maersk Weymouth

Last reported at 2016-Feb-08 04:26 UTC. Time now 2016-Feb-10 10:52 UTC.
Position N 25°21' W 079°47'.

Length 172 m; draft 7.7 m.

Type: Cargo ship. MMSI: 477622100.

Date/timePositionNaut miles runAvg speedWind from/ knotsBaromVisibWave heightAir tempDewpointWater temp
2016-Feb-08 04:26N 25°21' W 079°47'1213.4
2016-Feb-08 03:33N 25°32' W 079°51'1313.3
2016-Feb-08 02:34N 25°45' W 079°55'1313.3
2016-Feb-08 01:33N 25°57' W 079°59'1110.7
2016-Feb-08 00:33N 26°06' W 080°07'1 1.3
2016-Feb-07 23:33N 26°04' W 080°07'0 0.0
2016-Feb-07 22:33N 26°04' W 080°07'0 0.0
2016-Feb-07 21:33N 26°04' W 080°07'0 0.0
2016-Feb-07 20:33N 26°04' W 080°07'0 0.0
2016-Feb-07 19:33N 26°04' W 080°07'0 0.0
2016-Feb-07 18:33N 26°04' W 080°07'0 0.0
2016-Feb-07 17:33N 26°04' W 080°07'0 0.0
2016-Feb-07 16:34N 26°04' W 080°07'0 0.0
2016-Feb-07 15:33N 26°04' W 080°07'0 0.0
2016-Feb-07 14:33N 26°04' W 080°07'4 3.6
2016-Feb-07 13:33N 26°06' W 080°04'5 5.4
2016-Feb-07 12:33N 26°10' W 079°59'8 7.8
2016-Feb-07 11:33N 26°15' W 079°53'6 6.3
2016-Feb-07 10:33N 26°21' W 079°51'10 9.8
2016-Feb-07 09:33N 26°31' W 079°50'2310.7
2016-Feb-07 07:27N 26°53' W 079°46'29610.6
2016-Feb-06 03:28N 31°46' W 080°31'7 7.9
2016-Feb-06 02:32N 31°52' W 080°36'8 7.9
2016-Feb-06 01:33N 31°58' W 080°43'1211.9
2016-Feb-06 00:33N 32°03' W 080°56'9 9.1
2016-Feb-05 23:33N 32°05' W 081°06'3 2.6
2016-Feb-05 22:33N 32°07' W 081°08'0 0.0
2016-Feb-05 21:33N 32°07' W 081°08'0 0.0
2016-Feb-05 20:33N 32°07' W 081°08'0 0.0
2016-Feb-05 19:33N 32°07' W 081°08'0 0.0
2016-Feb-05 18:33N 32°07' W 081°08'0 0.0
2016-Feb-05 17:33N 32°07' W 081°08'0 0.0
2016-Feb-05 16:33N 32°07' W 081°08'0 0.0
2016-Feb-05 15:33N 32°07' W 081°08'0 0.0
2016-Feb-05 14:33N 32°07' W 081°08'0 0.0
2016-Feb-05 13:33N 32°07' W 081°08'0 0.0
2016-Feb-05 12:33N 32°07' W 081°08'0 0.0
2016-Feb-05 11:33N 32°07' W 081°08'0 0.0
2016-Feb-05 10:33N 32°07' W 081°08'0 0.0
2016-Feb-05 09:33N 32°07' W 081°08'0 0.0
2016-Feb-05 08:33N 32°07' W 081°08'3 2.9
2016-Feb-05 07:33N 32°05' W 081°06'8 8.5
2016-Feb-05 06:33N 32°03' W 080°56'1413.7
2016-Feb-05 05:34N 31°57' W 080°41'7 5.7
2016-Feb-05 04:16N 31°58' W 080°33'4 5.8
2016-Feb-05 03:34N 31°59' W 080°28'6 4.8
2016-Feb-05 02:16N 32°00' W 080°21'4 4.9
2016-Feb-05 01:33N 32°00' W 080°17'6 5.9
2016-Feb-05 00:33N 32°02' W 080°10'45011.5
2016-Feb-03 09:28N 37°58' W 074°35'1313.8
2016-Feb-03 08:33N 38°10' W 074°33'1313.0
2016-Feb-03 07:33N 38°22' W 074°40'1313.4
2016-Feb-03 06:33N 38°33' W 074°49'10 9.5
2016-Feb-03 05:33N 38°41' W 074°57'10 9.5
2016-Feb-03 04:33N 38°49' W 075°04'1313.5
2016-Feb-03 03:33N 39°01' W 075°09'1616.2
2016-Feb-03 02:33N 39°15' W 075°20'1717.5
2016-Feb-03 01:33N 39°29' W 075°34'1312.7
2016-Feb-03 00:33N 39°42' W 075°31'1110.5
2016-Feb-02 23:33N 39°50' W 075°22'10 9.7
2016-Feb-02 22:33N 39°53' W 075°10'2 2.1
2016-Feb-02 21:33N 39°54' W 075°08'0 0.0
2016-Feb-02 20:33N 39°54' W 075°08'0 0.0
2016-Feb-02 19:33N 39°54' W 075°08'0 0.0
2016-Feb-02 18:30N 39°54' W 075°08'0 0.0
2016-Feb-02 17:33N 39°54' W 075°08'0 0.0
2016-Feb-02 16:33N 39°54' W 075°08'0 0.0
2016-Feb-02 15:33N 39°54' W 075°08'0 0.0
2016-Feb-02 14:33N 39°54' W 075°08'0 0.0
2016-Feb-02 13:33N 39°54' W 075°08'0 0.0
2016-Feb-02 12:33N 39°54' W 075°08'0 0.0
2016-Feb-02 11:33N 39°54' W 075°08'0 0.0
2016-Feb-02 10:33N 39°54' W 075°08'3 2.9
2016-Feb-02 09:33N 39°53' W 075°11'1211.8
2016-Feb-02 08:33N 39°48' W 075°25'1313.1
2016-Feb-02 07:34N 39°37' W 075°35'1615.7
2016-Feb-02 06:33N 39°22' W 075°28'1616.4
2016-Feb-02 05:33N 39°09' W 075°15'1717.1
2016-Feb-02 04:33N 38°54' W 075°05'8 8.1
2016-Feb-02 03:33N 38°47' W 075°00'4 3.7
2016-Feb-02 02:33N 38°48' W 074°56'5 4.5
2016-Feb-02 01:33N 38°47' W 074°50'5 5.3
2016-Feb-02 00:33N 38°48' W 074°43'7 6.3
2016-Feb-01 23:22N 38°49' W 074°34'6 5.8
2016-Feb-01 22:23N 38°51' W 074°27'33 5.5
2016-Feb-01 16:18N 39°16' W 073°58'4 5.9
2016-Feb-01 15:33N 39°20' W 073°57'6 5.6
2016-Feb-01 14:33N 39°26' W 073°56'6 5.7
2016-Feb-01 13:33N 39°31' W 073°55'6 5.7
2016-Feb-01 12:33N 39°37' W 073°54'41 5.1
2016-Feb-01 04:31N 40°18' W 073°49'4 4.2
2016-Feb-01 03:32N 40°22' W 073°49'15 7.6
2016-Feb-01 01:33N 40°33' W 074°02'8 7.5
2016-Feb-01 00:33N 40°39' W 074°09'2 1.8
2016-Jan-31 23:33N 40°38' W 074°11'0 0.0
2016-Jan-31 22:33N 40°38' W 074°11'0 0.0
2016-Jan-31 21:33N 40°38' W 074°11'0 0.0
2016-Jan-31 20:33N 40°38' W 074°11'0 0.0
2016-Jan-31 19:33N 40°38' W 074°11'0 0.0
2016-Jan-31 18:33N 40°38' W 074°11'0 0.0
2016-Jan-31 17:33N 40°38' W 074°11'0 0.1
2016-Jan-31 16:33N 40°39' W 074°11'7 6.6
2016-Jan-31 15:33N 40°37' W 074°03'1212.3
2016-Jan-31 14:33N 40°28' W 073°52'16 8.0
2016-Jan-31 12:34N 40°13' W 073°44'5 4.6
2016-Jan-31 11:31N 40°11' W 073°38'16 5.5
2016-Jan-31 08:33N 39°55' W 073°44'13 9.7
2016-Jan-31 07:14N 39°43' W 073°42'8 9.9
2016-Jan-31 06:25N 39°34' W 073°42'910.0
2016-Jan-31 05:33N 39°26' W 073°42'8 8.1
2016-Jan-31 04:33N 39°18' W 073°42'7 7.2
2016-Jan-31 03:32N 39°10' W 073°42'6 6.1
2016-Jan-31 02:32N 39°04' W 073°42'8 7.0
2016-Jan-31 01:25N 38°56' W 073°42'12 6.5
2016-Jan-30 23:31N 38°44' W 073°42'9 9.6
2016-Jan-30 22:33N 38°35' W 073°42'  
Track history (hours):
 
Tides and Currents Weather Stations Pressure Air Temp Water Temp Dewpoint Dewpoint Depression Visibility Wind Speed Wind Dir Waves Ship Positions

Maersk Weymouth

Last reported at 2016-Feb-08 04:26 UTC. Time now 2016-Feb-10 10:52 UTC.
Position N 25°21' W 079°47'.

Length 172 m; draft 7.7 m.

Type: Cargo ship. MMSI: 477622100.

Date/timePositionNaut miles runAvg speedWind from/ knotsBaromVisibWave heightAir tempDewpointWater temp
2016-Feb-08 04:26N 25°21' W 079°47'1213.4
2016-Feb-08 03:33N 25°32' W 079°51'1313.3
2016-Feb-08 02:34N 25°45' W 079°55'1313.3
2016-Feb-08 01:33N 25°57' W 079°59'1110.7
2016-Feb-08 00:33N 26°06' W 080°07'1 1.3
2016-Feb-07 23:33N 26°04' W 080°07'0 0.0
2016-Feb-07 22:33N 26°04' W 080°07'0 0.0
2016-Feb-07 21:33N 26°04' W 080°07'0 0.0
2016-Feb-07 20:33N 26°04' W 080°07'0 0.0
2016-Feb-07 19:33N 26°04' W 080°07'0 0.0
2016-Feb-07 18:33N 26°04' W 080°07'0 0.0
2016-Feb-07 17:33N 26°04' W 080°07'0 0.0
2016-Feb-07 16:34N 26°04' W 080°07'0 0.0
2016-Feb-07 15:33N 26°04' W 080°07'0 0.0
2016-Feb-07 14:33N 26°04' W 080°07'4 3.6
2016-Feb-07 13:33N 26°06' W 080°04'5 5.4
2016-Feb-07 12:33N 26°10' W 079°59'8 7.8
2016-Feb-07 11:33N 26°15' W 079°53'6 6.3
2016-Feb-07 10:33N 26°21' W 079°51'10 9.8
2016-Feb-07 09:33N 26°31' W 079°50'2310.7
2016-Feb-07 07:27N 26°53' W 079°46'29610.6
2016-Feb-06 03:28N 31°46' W 080°31'7 7.9
2016-Feb-06 02:32N 31°52' W 080°36'8 7.9
2016-Feb-06 01:33N 31°58' W 080°43'1211.9
2016-Feb-06 00:33N 32°03' W 080°56'9 9.1
2016-Feb-05 23:33N 32°05' W 081°06'3 2.6
2016-Feb-05 22:33N 32°07' W 081°08'0 0.0
2016-Feb-05 21:33N 32°07' W 081°08'0 0.0
2016-Feb-05 20:33N 32°07' W 081°08'0 0.0
2016-Feb-05 19:33N 32°07' W 081°08'0 0.0
2016-Feb-05 18:33N 32°07' W 081°08'0 0.0
2016-Feb-05 17:33N 32°07' W 081°08'0 0.0
2016-Feb-05 16:33N 32°07' W 081°08'0 0.0
2016-Feb-05 15:33N 32°07' W 081°08'0 0.0
2016-Feb-05 14:33N 32°07' W 081°08'0 0.0
2016-Feb-05 13:33N 32°07' W 081°08'0 0.0
2016-Feb-05 12:33N 32°07' W 081°08'0 0.0
2016-Feb-05 11:33N 32°07' W 081°08'0 0.0
2016-Feb-05 10:33N 32°07' W 081°08'0 0.0
2016-Feb-05 09:33N 32°07' W 081°08'0 0.0
2016-Feb-05 08:33N 32°07' W 081°08'3 2.9
2016-Feb-05 07:33N 32°05' W 081°06'8 8.5
2016-Feb-05 06:33N 32°03' W 080°56'1413.7
2016-Feb-05 05:34N 31°57' W 080°41'7 5.7
2016-Feb-05 04:16N 31°58' W 080°33'4 5.8
2016-Feb-05 03:34N 31°59' W 080°28'6 4.8
2016-Feb-05 02:16N 32°00' W 080°21'4 4.9
2016-Feb-05 01:33N 32°00' W 080°17'6 5.9
2016-Feb-05 00:33N 32°02' W 080°10'45011.5
2016-Feb-03 09:28N 37°58' W 074°35'1313.8
2016-Feb-03 08:33N 38°10' W 074°33'1313.0
2016-Feb-03 07:33N 38°22' W 074°40'1313.4
2016-Feb-03 06:33N 38°33' W 074°49'10 9.5
2016-Feb-03 05:33N 38°41' W 074°57'10 9.5
2016-Feb-03 04:33N 38°49' W 075°04'1313.5
2016-Feb-03 03:33N 39°01' W 075°09'1616.2
2016-Feb-03 02:33N 39°15' W 075°20'1717.5
2016-Feb-03 01:33N 39°29' W 075°34'1312.7
2016-Feb-03 00:33N 39°42' W 075°31'1110.5
2016-Feb-02 23:33N 39°50' W 075°22'10 9.7
2016-Feb-02 22:33N 39°53' W 075°10'2 2.1
2016-Feb-02 21:33N 39°54' W 075°08'0 0.0
2016-Feb-02 20:33N 39°54' W 075°08'0 0.0
2016-Feb-02 19:33N 39°54' W 075°08'0 0.0
2016-Feb-02 18:30N 39°54' W 075°08'0 0.0
2016-Feb-02 17:33N 39°54' W 075°08'0 0.0
2016-Feb-02 16:33N 39°54' W 075°08'0 0.0
2016-Feb-02 15:33N 39°54' W 075°08'0 0.0
2016-Feb-02 14:33N 39°54' W 075°08'0 0.0
2016-Feb-02 13:33N 39°54' W 075°08'0 0.0
2016-Feb-02 12:33N 39°54' W 075°08'0 0.0
2016-Feb-02 11:33N 39°54' W 075°08'0 0.0
2016-Feb-02 10:33N 39°54' W 075°08'3 2.9
2016-Feb-02 09:33N 39°53' W 075°11'1211.8
2016-Feb-02 08:33N 39°48' W 075°25'1313.1
2016-Feb-02 07:34N 39°37' W 075°35'1615.7
2016-Feb-02 06:33N 39°22' W 075°28'1616.4
2016-Feb-02 05:33N 39°09' W 075°15'1717.1
2016-Feb-02 04:33N 38°54' W 075°05'8 8.1
2016-Feb-02 03:33N 38°47' W 075°00'4 3.7
2016-Feb-02 02:33N 38°48' W 074°56'5 4.5
2016-Feb-02 01:33N 38°47' W 074°50'5 5.3
2016-Feb-02 00:33N 38°48' W 074°43'7 6.3
2016-Feb-01 23:22N 38°49' W 074°34'6 5.8
2016-Feb-01 22:23N 38°51' W 074°27'33 5.5
2016-Feb-01 16:18N 39°16' W 073°58'4 5.9
2016-Feb-01 15:33N 39°20' W 073°57'6 5.6
2016-Feb-01 14:33N 39°26' W 073°56'6 5.7
2016-Feb-01 13:33N 39°31' W 073°55'6 5.7
2016-Feb-01 12:33N 39°37' W 073°54'41 5.1
2016-Feb-01 04:31N 40°18' W 073°49'4 4.2
2016-Feb-01 03:32N 40°22' W 073°49'15 7.6
2016-Feb-01 01:33N 40°33' W 074°02'8 7.5
2016-Feb-01 00:33N 40°39' W 074°09'2 1.8
2016-Jan-31 23:33N 40°38' W 074°11'0 0.0
2016-Jan-31 22:33N 40°38' W 074°11'0 0.0
2016-Jan-31 21:33N 40°38' W 074°11'0 0.0
2016-Jan-31 20:33N 40°38' W 074°11'0 0.0
2016-Jan-31 19:33N 40°38' W 074°11'0 0.0
2016-Jan-31 18:33N 40°38' W 074°11'0 0.0
2016-Jan-31 17:33N 40°38' W 074°11'0 0.1
2016-Jan-31 16:33N 40°39' W 074°11'7 6.6
2016-Jan-31 15:33N 40°37' W 074°03'1212.3
2016-Jan-31 14:33N 40°28' W 073°52'16 8.0
2016-Jan-31 12:34N 40°13' W 073°44'5 4.6
2016-Jan-31 11:31N 40°11' W 073°38'16 5.5
2016-Jan-31 08:33N 39°55' W 073°44'13 9.7
2016-Jan-31 07:14N 39°43' W 073°42'8 9.9
2016-Jan-31 06:25N 39°34' W 073°42'910.0
2016-Jan-31 05:33N 39°26' W 073°42'8 8.1
2016-Jan-31 04:33N 39°18' W 073°42'7 7.2
2016-Jan-31 03:32N 39°10' W 073°42'6 6.1
2016-Jan-31 02:32N 39°04' W 073°42'8 7.0
2016-Jan-31 01:25N 38°56' W 073°42'12 6.5
2016-Jan-30 23:31N 38°44' W 073°42'9 9.6
2016-Jan-30 22:33N 38°35' W 073°42'  

Dump ship's entire track history